sensor_id;sensor_type;location;lat;lon;timestamp;temperature;humidity
69324;DHT22;56470;47.350;8.718;2023-02-11T00:01:11;2.05;66.36
69324;DHT22;56470;47.350;8.718;2023-02-11T00:03:37;2.06;66.55
69324;DHT22;56470;47.350;8.718;2023-02-11T00:06:05;2.07;66.49
69324;DHT22;56470;47.350;8.718;2023-02-11T00:08:33;2.07;66.65
69324;DHT22;56470;47.350;8.718;2023-02-11T00:10:59;2.06;66.68
69324;DHT22;56470;47.350;8.718;2023-02-11T00:13:25;2.07;66.61
69324;DHT22;56470;47.350;8.718;2023-02-11T00:15:50;2.09;66.63
69324;DHT22;56470;47.350;8.718;2023-02-11T00:18:15;2.07;66.51
69324;DHT22;56470;47.350;8.718;2023-02-11T00:20:44;2.05;66.65
69324;DHT22;56470;47.350;8.718;2023-02-11T00:23:10;2.05;66.64
69324;DHT22;56470;47.350;8.718;2023-02-11T00:25:39;2.05;66.42
69324;DHT22;56470;47.350;8.718;2023-02-11T00:28:05;2.00;66.60
69324;DHT22;56470;47.350;8.718;2023-02-11T00:30:30;1.96;66.69
69324;DHT22;56470;47.350;8.718;2023-02-11T00:32:56;1.95;66.76
69324;DHT22;56470;47.350;8.718;2023-02-11T00:35:21;1.86;66.59
69324;DHT22;56470;47.350;8.718;2023-02-11T00:37:46;1.85;66.67
69324;DHT22;56470;47.350;8.718;2023-02-11T00:40:11;1.76;66.89
69324;DHT22;56470;47.350;8.718;2023-02-11T00:42:37;1.72;66.81
69324;DHT22;56470;47.350;8.718;2023-02-11T00:45:03;1.66;66.93
69324;DHT22;56470;47.350;8.718;2023-02-11T00:47:28;1.65;67.10
69324;DHT22;56470;47.350;8.718;2023-02-11T00:49:54;1.64;67.16
69324;DHT22;56470;47.350;8.718;2023-02-11T00:52:19;1.68;67.30
69324;DHT22;56470;47.350;8.718;2023-02-11T00:54:44;1.68;67.22
69324;DHT22;56470;47.350;8.718;2023-02-11T00:57:10;1.71;67.18
69324;DHT22;56470;47.350;8.718;2023-02-11T00:59:35;1.75;67.21
69324;DHT22;56470;47.350;8.718;2023-02-11T01:02:00;1.75;67.20
69324;DHT22;56470;47.350;8.718;2023-02-11T01:04:26;1.76;67.06
69324;DHT22;56470;47.350;8.718;2023-02-11T01:06:51;1.76;67.04
69324;DHT22;56470;47.350;8.718;2023-02-11T01:09:17;1.74;66.93
69324;DHT22;56470;47.350;8.718;2023-02-11T01:11:43;1.69;67.18
69324;DHT22;56470;47.350;8.718;2023-02-11T01:14:08;1.58;66.87
69324;DHT22;56470;47.350;8.718;2023-02-11T01:16:34;1.54;66.91
69324;DHT22;56470;47.350;8.718;2023-02-11T01:18:59;1.50;67.09
69324;DHT22;56470;47.350;8.718;2023-02-11T01:21:25;1.46;67.14
69324;DHT22;56470;47.350;8.718;2023-02-11T01:23:50;1.36;67.37
69324;DHT22;56470;47.350;8.718;2023-02-11T01:26:15;1.30;67.38
69324;DHT22;56470;47.350;8.718;2023-02-11T01:28:41;1.29;67.46
69324;DHT22;56470;47.350;8.718;2023-02-11T01:31:06;1.24;67.56
69324;DHT22;56470;47.350;8.718;2023-02-11T01:33:32;1.27;67.62
69324;DHT22;56470;47.350;8.718;2023-02-11T01:36:02;1.24;67.46
69324;DHT22;56470;47.350;8.718;2023-02-11T01:38:28;1.27;67.64
69324;DHT22;56470;47.350;8.718;2023-02-11T01:40:57;1.26;67.46
69324;DHT22;56470;47.350;8.718;2023-02-11T01:43:25;1.24;67.60
69324;DHT22;56470;47.350;8.718;2023-02-11T01:48:41;1.04;67.79
69324;DHT22;56470;47.350;8.718;2023-02-11T01:51:15;1.00;67.63
69324;DHT22;56470;47.350;8.718;2023-02-11T01:53:43;1.00;67.92
69324;DHT22;56470;47.350;8.718;2023-02-11T01:56:29;1.03;68.12
69324;DHT22;56470;47.350;8.718;2023-02-11T01:59:21;1.07;67.83
69324;DHT22;56470;47.350;8.718;2023-02-11T02:01:55;1.12;68.12
69324;DHT22;56470;47.350;8.718;2023-02-11T02:04:22;1.16;68.04
69324;DHT22;56470;47.350;8.718;2023-02-11T02:06:55;1.22;67.65
69324;DHT22;56470;47.350;8.718;2023-02-11T02:09:24;1.22;67.70
69324;DHT22;56470;47.350;8.718;2023-02-11T02:11:51;1.26;67.77
69324;DHT22;56470;47.350;8.718;2023-02-11T02:14:16;1.27;67.66
69324;DHT22;56470;47.350;8.718;2023-02-11T02:16:43;1.23;67.47
69324;DHT22;56470;47.350;8.718;2023-02-11T02:24:55;1.03;67.32
69324;DHT22;56470;47.350;8.718;2023-02-11T02:33:05;1.00;67.51
69324;DHT22;56470;47.350;8.718;2023-02-11T02:39:00;0.97;67.43
69324;DHT22;56470;47.350;8.718;2023-02-11T02:41:29;0.99;67.35
69324;DHT22;56470;47.350;8.718;2023-02-11T02:43:55;0.96;67.50
69324;DHT22;56470;47.350;8.718;2023-02-11T02:46:26;0.95;67.62
69324;DHT22;56470;47.350;8.718;2023-02-11T02:48:52;0.99;67.71
69324;DHT22;56470;47.350;8.718;2023-02-11T02:57:24;1.17;67.49
69324;DHT22;56470;47.350;8.718;2023-02-11T03:04:52;1.26;67.24
69324;DHT22;56470;47.350;8.718;2023-02-11T03:10:35;1.30;67.28
69324;DHT22;56470;47.350;8.718;2023-02-11T03:13:02;1.30;67.15
69324;DHT22;56470;47.350;8.718;2023-02-11T03:15:31;1.27;66.89
69324;DHT22;56470;47.350;8.718;2023-02-11T03:18:00;1.30;67.10
69324;DHT22;56470;47.350;8.718;2023-02-11T03:20:29;1.31;66.98
69324;DHT22;56470;47.350;8.718;2023-02-11T03:23:17;1.30;66.90
69324;DHT22;56470;47.350;8.718;2023-02-11T03:25:48;1.33;66.74
69324;DHT22;56470;47.350;8.718;2023-02-11T03:28:30;1.29;66.84
69324;DHT22;56470;47.350;8.718;2023-02-11T03:33:59;1.31;66.74
69324;DHT22;56470;47.350;8.718;2023-02-11T03:36:34;1.24;66.89
69324;DHT22;56470;47.350;8.718;2023-02-11T03:39:04;1.29;66.97
69324;DHT22;56470;47.350;8.718;2023-02-11T03:41:30;1.27;66.89
69324;DHT22;56470;47.350;8.718;2023-02-11T03:43:58;1.26;66.85
69324;DHT22;56470;47.350;8.718;2023-02-11T03:46:32;1.24;66.82
69324;DHT22;56470;47.350;8.718;2023-02-11T03:49:03;1.23;66.76
69324;DHT22;56470;47.350;8.718;2023-02-11T03:51:31;1.16;66.91
69324;DHT22;56470;47.350;8.718;2023-02-11T03:54:00;1.13;66.95
69324;DHT22;56470;47.350;8.718;2023-02-11T03:56:29;1.12;66.79
69324;DHT22;56470;47.350;8.718;2023-02-11T03:58:57;1.06;66.98
69324;DHT22;56470;47.350;8.718;2023-02-11T04:01:22;1.00;67.14
69324;DHT22;56470;47.350;8.718;2023-02-11T04:03:48;0.96;67.37
69324;DHT22;56470;47.350;8.718;2023-02-11T04:06:13;0.96;67.22
69324;DHT22;56470;47.350;8.718;2023-02-11T04:08:38;0.95;67.37
69324;DHT22;56470;47.350;8.718;2023-02-11T04:11:04;0.91;67.31
69324;DHT22;56470;47.350;8.718;2023-02-11T04:13:29;0.88;67.43
69324;DHT22;56470;47.350;8.718;2023-02-11T04:15:54;0.84;67.34
69324;DHT22;56470;47.350;8.718;2023-02-11T04:18:20;0.85;67.43
69324;DHT22;56470;47.350;8.718;2023-02-11T04:20:45;0.84;67.13
69324;DHT22;56470;47.350;8.718;2023-02-11T04:23:11;0.82;67.28
69324;DHT22;56470;47.350;8.718;2023-02-11T04:25:36;0.78;67.36
69324;DHT22;56470;47.350;8.718;2023-02-11T04:28:02;0.74;67.38
69324;DHT22;56470;47.350;8.718;2023-02-11T04:30:27;0.72;67.53
69324;DHT22;56470;47.350;8.718;2023-02-11T04:32:52;0.67;67.66
69324;DHT22;56470;47.350;8.718;2023-02-11T04:35:19;0.67;67.62
69324;DHT22;56470;47.350;8.718;2023-02-11T04:37:44;0.61;67.77
69324;DHT22;56470;47.350;8.718;2023-02-11T04:40:09;0.65;67.85
69324;DHT22;56470;47.350;8.718;2023-02-11T04:42:35;0.64;67.86
69324;DHT22;56470;47.350;8.718;2023-02-11T04:45:00;0.68;67.77
69324;DHT22;56470;47.350;8.718;2023-02-11T04:47:26;0.65;67.83
69324;DHT22;56470;47.350;8.718;2023-02-11T04:49:51;0.67;67.66
69324;DHT22;56470;47.350;8.718;2023-02-11T04:52:16;0.64;67.58
69324;DHT22;56470;47.350;8.718;2023-02-11T04:54:42;0.61;67.64
69324;DHT22;56470;47.350;8.718;2023-02-11T04:57:07;0.61;67.66
69324;DHT22;56470;47.350;8.718;2023-02-11T04:59:32;0.61;67.75
69324;DHT22;56470;47.350;8.718;2023-02-11T05:01:58;0.64;67.85
69324;DHT22;56470;47.350;8.718;2023-02-11T05:04:23;0.61;67.59
69324;DHT22;56470;47.350;8.718;2023-02-11T05:06:48;0.62;67.75
69324;DHT22;56470;47.350;8.718;2023-02-11T05:09:14;0.62;67.69
69324;DHT22;56470;47.350;8.718;2023-02-11T05:11:42;0.60;67.73
69324;DHT22;56470;47.350;8.718;2023-02-11T05:14:07;0.64;67.69
69324;DHT22;56470;47.350;8.718;2023-02-11T05:16:33;0.65;67.57
69324;DHT22;56470;47.350;8.718;2023-02-11T05:18:58;0.68;67.68
69324;DHT22;56470;47.350;8.718;2023-02-11T05:21:24;0.71;67.65
69324;DHT22;56470;47.350;8.718;2023-02-11T05:23:50;0.72;67.54
69324;DHT22;56470;47.350;8.718;2023-02-11T05:26:16;0.76;67.61
69324;DHT22;56470;47.350;8.718;2023-02-11T05:28:41;0.76;67.44
69324;DHT22;56470;47.350;8.718;2023-02-11T05:31:07;0.75;67.48
69324;DHT22;56470;47.350;8.718;2023-02-11T05:33:33;0.74;67.45
69324;DHT22;56470;47.350;8.718;2023-02-11T05:36:05;0.74;67.44
69324;DHT22;56470;47.350;8.718;2023-02-11T05:38:31;0.72;67.27
69324;DHT22;56470;47.350;8.718;2023-02-11T05:40:57;0.69;67.29
69324;DHT22;56470;47.350;8.718;2023-02-11T05:43:22;0.68;67.44
69324;DHT22;56470;47.350;8.718;2023-02-11T05:45:47;0.68;67.54
69324;DHT22;56470;47.350;8.718;2023-02-11T05:48:13;0.69;67.45
69324;DHT22;56470;47.350;8.718;2023-02-11T05:50:39;0.72;67.49
69324;DHT22;56470;47.350;8.718;2023-02-11T05:53:05;0.72;67.53
69324;DHT22;56470;47.350;8.718;2023-02-11T05:55:31;0.75;67.43
69324;DHT22;56470;47.350;8.718;2023-02-11T05:57:57;0.68;67.18
69324;DHT22;56470;47.350;8.718;2023-02-11T06:00:23;0.58;67.38
69324;DHT22;56470;47.350;8.718;2023-02-11T06:02:48;0.50;67.91
69324;DHT22;56470;47.350;8.718;2023-02-11T06:05:14;0.54;67.99
69324;DHT22;56470;47.350;8.718;2023-02-11T06:07:39;0.57;67.84
69324;DHT22;56470;47.350;8.718;2023-02-11T06:10:05;0.58;67.93
69324;DHT22;56470;47.350;8.718;2023-02-11T06:12:31;0.64;67.86
69324;DHT22;56470;47.350;8.718;2023-02-11T06:14:56;0.71;67.83
69324;DHT22;56470;47.350;8.718;2023-02-11T06:17:21;0.69;67.70
69324;DHT22;56470;47.350;8.718;2023-02-11T06:19:50;0.69;67.62
69324;DHT22;56470;47.350;8.718;2023-02-11T06:22:16;0.69;67.54
69324;DHT22;56470;47.350;8.718;2023-02-11T06:24:41;0.68;67.62
69324;DHT22;56470;47.350;8.718;2023-02-11T06:27:06;0.71;67.56
69324;DHT22;56470;47.350;8.718;2023-02-11T06:29:32;0.71;67.66
69324;DHT22;56470;47.350;8.718;2023-02-11T06:31:57;0.72;67.58
69324;DHT22;56470;47.350;8.718;2023-02-11T06:34:22;0.64;67.29
69324;DHT22;56470;47.350;8.718;2023-02-11T06:36:48;0.65;67.52
69324;DHT22;56470;47.350;8.718;2023-02-11T06:39:13;0.65;67.43
69324;DHT22;56470;47.350;8.718;2023-02-11T06:41:39;0.65;67.49
69324;DHT22;56470;47.350;8.718;2023-02-11T06:44:04;0.67;67.49
69324;DHT22;56470;47.350;8.718;2023-02-11T06:46:30;0.67;67.51
69324;DHT22;56470;47.350;8.718;2023-02-11T06:48:55;0.72;67.47
69324;DHT22;56470;47.350;8.718;2023-02-11T06:51:21;0.71;67.27
69324;DHT22;56470;47.350;8.718;2023-02-11T06:53:46;0.75;67.28
69324;DHT22;56470;47.350;8.718;2023-02-11T06:56:15;0.69;67.16
69324;DHT22;56470;47.350;8.718;2023-02-11T06:58:40;0.65;67.06
69324;DHT22;56470;47.350;8.718;2023-02-11T07:01:08;0.64;67.32
69324;DHT22;56470;47.350;8.718;2023-02-11T07:03:34;0.64;67.50
69324;DHT22;56470;47.350;8.718;2023-02-11T07:06:01;0.68;67.50
69324;DHT22;56470;47.350;8.718;2023-02-11T07:08:26;0.72;67.55
69324;DHT22;56470;47.350;8.718;2023-02-11T07:10:52;0.78;67.51
69324;DHT22;56470;47.350;8.718;2023-02-11T07:13:17;0.81;67.51
69324;DHT22;56470;47.350;8.718;2023-02-11T07:15:42;0.85;67.59
69324;DHT22;56470;47.350;8.718;2023-02-11T07:18:07;0.93;67.45
69324;DHT22;56470;47.350;8.718;2023-02-11T07:20:33;1.03;67.53
69324;DHT22;56470;47.350;8.718;2023-02-11T07:22:58;1.13;67.21
69324;DHT22;56470;47.350;8.718;2023-02-11T07:25:24;1.20;67.12
69324;DHT22;56470;47.350;8.718;2023-02-11T07:27:49;1.29;67.16
69324;DHT22;56470;47.350;8.718;2023-02-11T07:30:15;1.38;66.80
69324;DHT22;56470;47.350;8.718;2023-02-11T07:32:40;1.41;66.39
69324;DHT22;56470;47.350;8.718;2023-02-11T07:35:06;1.41;66.52
69324;DHT22;56470;47.350;8.718;2023-02-11T07:37:34;1.40;66.49
69324;DHT22;56470;47.350;8.718;2023-02-11T07:40:26;1.41;66.75
69324;DHT22;56470;47.350;8.718;2023-02-11T07:42:51;1.33;66.55
69324;DHT22;56470;47.350;8.718;2023-02-11T07:45:16;1.26;66.77
69324;DHT22;56470;47.350;8.718;2023-02-11T07:47:51;1.22;66.77
69324;DHT22;56470;47.350;8.718;2023-02-11T07:50:16;1.16;66.96
69324;DHT22;56470;47.350;8.718;2023-02-11T07:52:42;1.13;67.50
69324;DHT22;56470;47.350;8.718;2023-02-11T07:55:07;1.22;67.42
69324;DHT22;56470;47.350;8.718;2023-02-11T07:57:34;1.44;67.57
69324;DHT22;56470;47.350;8.718;2023-02-11T07:59:59;1.66;67.25
69324;DHT22;56470;47.350;8.718;2023-02-11T08:02:25;1.87;67.16
69324;DHT22;56470;47.350;8.718;2023-02-11T08:04:50;2.11;66.88
69324;DHT22;56470;47.350;8.718;2023-02-11T08:07:17;2.30;66.50
69324;DHT22;56470;47.350;8.718;2023-02-11T08:09:42;2.45;66.41
69324;DHT22;56470;47.350;8.718;2023-02-11T08:12:07;2.56;66.26
69324;DHT22;56470;47.350;8.718;2023-02-11T08:14:33;2.71;66.31
69324;DHT22;56470;47.350;8.718;2023-02-11T08:16:58;2.79;65.75
69324;DHT22;56470;47.350;8.718;2023-02-11T08:19:23;2.89;65.47
69324;DHT22;56470;47.350;8.718;2023-02-11T08:21:49;2.99;65.40
69324;DHT22;56470;47.350;8.718;2023-02-11T08:24:14;3.07;65.04
69324;DHT22;56470;47.350;8.718;2023-02-11T08:26:40;3.13;64.54
69324;DHT22;56470;47.350;8.718;2023-02-11T08:29:08;3.28;64.84
69324;DHT22;56470;47.350;8.718;2023-02-11T08:31:37;3.28;64.07
69324;DHT22;56470;47.350;8.718;2023-02-11T08:34:02;3.31;63.76
69324;DHT22;56470;47.350;8.718;2023-02-11T08:36:31;3.34;63.61
69324;DHT22;56470;47.350;8.718;2023-02-11T08:38:58;3.38;63.99
69324;DHT22;56470;47.350;8.718;2023-02-11T08:41:25;3.44;64.27
69324;DHT22;56470;47.350;8.718;2023-02-11T08:43:50;3.48;64.41
69324;DHT22;56470;47.350;8.718;2023-02-11T08:46:18;3.48;64.52
69324;DHT22;56470;47.350;8.718;2023-02-11T08:48:44;3.54;64.80
69324;DHT22;56470;47.350;8.718;2023-02-11T08:51:17;3.59;64.86
69324;DHT22;56470;47.350;8.718;2023-02-11T08:53:43;3.68;64.76
69324;DHT22;56470;47.350;8.718;2023-02-11T08:56:09;3.69;64.74
69324;DHT22;56470;47.350;8.718;2023-02-11T08:58:35;3.82;64.55
69324;DHT22;56470;47.350;8.718;2023-02-11T09:01:00;3.94;64.49
69324;DHT22;56470;47.350;8.718;2023-02-11T09:03:26;4.04;64.22
69324;DHT22;56470;47.350;8.718;2023-02-11T09:05:51;4.07;63.18
69324;DHT22;56470;47.350;8.718;2023-02-11T09:08:18;4.08;63.12
69324;DHT22;56470;47.350;8.718;2023-02-11T09:10:45;4.17;63.04
69324;DHT22;56470;47.350;8.718;2023-02-11T09:13:10;4.28;63.07
69324;DHT22;56470;47.350;8.718;2023-02-11T09:15:35;4.41;62.27
69324;DHT22;56470;47.350;8.718;2023-02-11T09:18:02;4.45;61.36
69324;DHT22;56470;47.350;8.718;2023-02-11T09:20:27;4.62;61.80
69324;DHT22;56470;47.350;8.718;2023-02-11T09:22:53;4.79;61.34
69324;DHT22;56470;47.350;8.718;2023-02-11T09:25:21;4.97;60.87
69324;DHT22;56470;47.350;8.718;2023-02-11T09:27:47;5.13;60.41
69324;DHT22;56470;47.350;8.718;2023-02-11T09:30:13;5.24;60.21
69324;DHT22;56470;47.350;8.718;2023-02-11T09:32:38;5.36;60.16
69324;DHT22;56470;47.350;8.718;2023-02-11T09:35:04;5.49;59.79
69324;DHT22;56470;47.350;8.718;2023-02-11T09:37:29;5.59;59.91
69324;DHT22;56470;47.350;8.718;2023-02-11T09:39:55;5.73;59.85
69324;DHT22;56470;47.350;8.718;2023-02-11T09:45:24;6.05;59.71
69324;DHT22;56470;47.350;8.718;2023-02-11T09:48:00;6.18;59.47
69324;DHT22;56470;47.350;8.718;2023-02-11T09:50:29;6.24;59.62
69324;DHT22;56470;47.350;8.718;2023-02-11T09:53:00;6.35;59.55
69324;DHT22;56470;47.350;8.718;2023-02-11T09:55:38;6.49;59.72
69324;DHT22;56470;47.350;8.718;2023-02-11T09:58:13;6.57;59.49
69324;DHT22;56470;47.350;8.718;2023-02-11T10:01:02;6.67;59.18
69324;DHT22;56470;47.350;8.718;2023-02-11T10:11:35;6.94;58.51
69324;DHT22;56470;47.350;8.718;2023-02-11T10:14:17;7.03;58.54
69324;DHT22;56470;47.350;8.718;2023-02-11T10:16:57;7.00;57.62
69324;DHT22;56470;47.350;8.718;2023-02-11T10:19:48;6.93;57.16
69324;DHT22;56470;47.350;8.718;2023-02-11T10:22:31;6.88;56.23
69324;DHT22;56470;47.350;8.718;2023-02-11T10:24:59;6.83;56.98
69324;DHT22;56470;47.350;8.718;2023-02-11T10:27:31;6.80;57.54
69324;DHT22;56470;47.350;8.718;2023-02-11T10:30:18;6.76;56.53
69324;DHT22;56470;47.350;8.718;2023-02-11T10:32:52;6.60;56.71
69324;DHT22;56470;47.350;8.718;2023-02-11T10:35:21;6.36;56.85
69324;DHT22;56470;47.350;8.718;2023-02-11T10:37:47;6.22;56.56
69324;DHT22;56470;47.350;8.718;2023-02-11T10:40:19;6.11;56.66
69324;DHT22;56470;47.350;8.718;2023-02-11T10:42:48;6.04;57.19
69324;DHT22;56470;47.350;8.718;2023-02-11T10:45:32;6.01;55.95
69324;DHT22;56470;47.350;8.718;2023-02-11T10:47:59;6.03;56.97
69324;DHT22;56470;47.350;8.718;2023-02-11T10:50:30;6.08;56.94
69324;DHT22;56470;47.350;8.718;2023-02-11T10:53:11;6.14;56.24
69324;DHT22;56470;47.350;8.718;2023-02-11T10:55:37;6.20;56.48
69324;DHT22;56470;47.350;8.718;2023-02-11T10:58:03;6.21;56.30
69324;DHT22;56470;47.350;8.718;2023-02-11T11:00:41;6.21;56.09
69324;DHT22;56470;47.350;8.718;2023-02-11T11:03:25;6.21;55.76
69324;DHT22;56470;47.350;8.718;2023-02-11T11:05:54;6.25;56.22
69324;DHT22;56470;47.350;8.718;2023-02-11T11:08:19;6.25;56.29
69324;DHT22;56470;47.350;8.718;2023-02-11T11:11:01;6.24;55.62
69324;DHT22;56470;47.350;8.718;2023-02-11T11:13:41;6.26;55.98
69324;DHT22;56470;47.350;8.718;2023-02-11T11:19:31;6.24;56.01
69324;DHT22;56470;47.350;8.718;2023-02-11T11:21:46;6.18;56.16
69324;DHT22;56470;47.350;8.718;2023-02-11T11:24:31;6.17;55.54
69324;DHT22;56470;47.350;8.718;2023-02-11T11:27:01;6.18;56.35
69324;DHT22;56470;47.350;8.718;2023-02-11T11:29:34;6.18;56.32
69324;DHT22;56470;47.350;8.718;2023-02-11T11:32:13;6.15;55.75
69324;DHT22;56470;47.350;8.718;2023-02-11T11:34:50;6.15;56.25
69324;DHT22;56470;47.350;8.718;2023-02-11T11:37:26;6.17;56.17
69324;DHT22;56470;47.350;8.718;2023-02-11T11:42:33;6.24;56.08
69324;DHT22;56470;47.350;8.718;2023-02-11T11:45:17;6.26;55.87
69324;DHT22;56470;47.350;8.718;2023-02-11T11:47:57;6.24;55.80
69324;DHT22;56470;47.350;8.718;2023-02-11T11:50:47;6.20;55.21
69324;DHT22;56470;47.350;8.718;2023-02-11T11:53:26;6.25;55.93
69324;DHT22;56470;47.350;8.718;2023-02-11T11:56:20;6.24;54.85
69324;DHT22;56470;47.350;8.718;2023-02-11T11:58:47;6.21;55.79
69324;DHT22;56470;47.350;8.718;2023-02-11T12:04:16;6.14;55.49
69324;DHT22;56470;47.350;8.718;2023-02-11T12:16:03;6.07;55.83
69324;DHT22;56470;47.350;8.718;2023-02-11T12:29:46;6.07;55.61
69324;DHT22;56470;47.350;8.718;2023-02-11T12:40:21;6.05;55.67
69324;DHT22;56470;47.350;8.718;2023-02-11T12:45:59;6.05;54.97
69324;DHT22;56470;47.350;8.718;2023-02-11T12:48:45;6.04;54.32
69324;DHT22;56470;47.350;8.718;2023-02-11T12:54:19;6.08;55.14
69324;DHT22;56470;47.350;8.718;2023-02-11T13:01:51;6.07;54.43
69324;DHT22;56470;47.350;8.718;2023-02-11T13:04:34;6.13;54.01
69324;DHT22;56470;47.350;8.718;2023-02-11T13:07:03;6.10;54.16
69324;DHT22;56470;47.350;8.718;2023-02-11T13:09:53;6.07;53.30
69324;DHT22;56470;47.350;8.718;2023-02-11T13:12:22;6.14;54.28
69324;DHT22;56470;47.350;8.718;2023-02-11T13:15:12;6.15;54.43
69324;DHT22;56470;47.350;8.718;2023-02-11T13:17:51;6.15;53.83
69324;DHT22;56470;47.350;8.718;2023-02-11T13:25:52;6.15;53.98
69324;DHT22;56470;47.350;8.718;2023-02-11T13:28:34;6.14;53.25
69324;DHT22;56470;47.350;8.718;2023-02-11T13:31:02;6.18;54.55
69324;DHT22;56470;47.350;8.718;2023-02-11T13:33:33;6.18;54.02
69324;DHT22;56470;47.350;8.718;2023-02-11T13:38:26;6.22;53.86
69324;DHT22;56470;47.350;8.718;2023-02-11T13:44:19;6.24;53.61
69324;DHT22;56470;47.350;8.718;2023-02-11T13:49:41;6.29;52.27
69324;DHT22;56470;47.350;8.718;2023-02-11T13:52:28;6.32;53.34
69324;DHT22;56470;47.350;8.718;2023-02-11T13:54:56;6.38;53.60
69324;DHT22;56470;47.350;8.718;2023-02-11T13:57:33;6.42;53.56
69324;DHT22;56470;47.350;8.718;2023-02-11T14:00:09;6.45;53.73
69324;DHT22;56470;47.350;8.718;2023-02-11T14:02:38;6.48;53.41
69324;DHT22;56470;47.350;8.718;2023-02-11T14:05:31;6.52;53.21
69324;DHT22;56470;47.350;8.718;2023-02-11T14:08:21;6.59;53.50
69324;DHT22;56470;47.350;8.718;2023-02-11T14:14:32;6.62;51.92
69324;DHT22;56470;47.350;8.718;2023-02-11T14:19:34;6.66;53.24
69324;DHT22;56470;47.350;8.718;2023-02-11T14:22:13;6.65;52.92
69324;DHT22;56470;47.350;8.718;2023-02-11T14:24:47;6.67;53.26
69324;DHT22;56470;47.350;8.718;2023-02-11T14:27:24;6.66;53.19
69324;DHT22;56470;47.350;8.718;2023-02-11T14:33:07;6.65;52.26
69324;DHT22;56470;47.350;8.718;2023-02-11T14:36:00;6.65;52.00
69324;DHT22;56470;47.350;8.718;2023-02-11T14:39:42;6.65;52.80
69324;DHT22;56470;47.350;8.718;2023-02-11T14:41:43;6.66;53.00
69324;DHT22;56470;47.350;8.718;2023-02-11T14:44:22;6.65;53.16
69324;DHT22;56470;47.350;8.718;2023-02-11T14:46:50;6.70;53.34
69324;DHT22;56470;47.350;8.718;2023-02-11T14:49:23;6.73;53.63
69324;DHT22;56470;47.350;8.718;2023-02-11T14:52:37;6.72;53.67
69324;DHT22;56470;47.350;8.718;2023-02-11T14:54:38;6.76;53.62
69324;DHT22;56470;47.350;8.718;2023-02-11T14:57:16;6.76;53.83
69324;DHT22;56470;47.350;8.718;2023-02-11T14:59:55;6.76;53.75
69324;DHT22;56470;47.350;8.718;2023-02-11T15:02:24;6.80;53.90
69324;DHT22;56470;47.350;8.718;2023-02-11T15:04:52;6.80;53.95
69324;DHT22;56470;47.350;8.718;2023-02-11T15:07:19;6.81;53.89
69324;DHT22;56470;47.350;8.718;2023-02-11T15:09:48;6.87;54.27
69324;DHT22;56470;47.350;8.718;2023-02-11T15:12:21;6.86;54.22
69324;DHT22;56470;47.350;8.718;2023-02-11T15:14:49;6.91;54.53
69324;DHT22;56470;47.350;8.718;2023-02-11T15:17:19;6.91;54.30
69324;DHT22;56470;47.350;8.718;2023-02-11T15:19:48;6.96;54.23
69324;DHT22;56470;47.350;8.718;2023-02-11T15:22:19;6.96;54.11
69324;DHT22;56470;47.350;8.718;2023-02-11T15:25:00;6.97;53.95
69324;DHT22;56470;47.350;8.718;2023-02-11T15:27:26;7.03;53.86
69324;DHT22;56470;47.350;8.718;2023-02-11T15:29:51;7.05;53.94
69324;DHT22;56470;47.350;8.718;2023-02-11T15:32:22;7.09;53.87
69324;DHT22;56470;47.350;8.718;2023-02-11T15:34:50;7.08;53.79
69324;DHT22;56470;47.350;8.718;2023-02-11T15:37:24;7.11;53.92
69324;DHT22;56470;47.350;8.718;2023-02-11T15:39:51;7.14;53.87
69324;DHT22;56470;47.350;8.718;2023-02-11T15:42:26;7.16;53.81
69324;DHT22;56470;47.350;8.718;2023-02-11T15:47:31;7.19;53.71
69324;DHT22;56470;47.350;8.718;2023-02-11T15:49:57;7.16;53.51
69324;DHT22;56470;47.350;8.718;2023-02-11T15:52:25;7.18;53.48
69324;DHT22;56470;47.350;8.718;2023-02-11T15:54:52;7.22;53.41
69324;DHT22;56470;47.350;8.718;2023-02-11T15:57:19;7.19;53.46
69324;DHT22;56470;47.350;8.718;2023-02-11T15:59:51;7.19;53.40
69324;DHT22;56470;47.350;8.718;2023-02-11T16:02:30;7.19;53.55
69324;DHT22;56470;47.350;8.718;2023-02-11T16:05:05;7.18;53.66
69324;DHT22;56470;47.350;8.718;2023-02-11T16:07:49;7.15;53.29
69324;DHT22;56470;47.350;8.718;2023-02-11T16:13:02;7.19;53.66
69324;DHT22;56470;47.350;8.718;2023-02-11T16:15:57;7.14;53.02
69324;DHT22;56470;47.350;8.718;2023-02-11T16:18:29;7.18;53.83
69324;DHT22;56470;47.350;8.718;2023-02-11T16:20:57;7.18;53.77
69324;DHT22;56470;47.350;8.718;2023-02-11T16:23:26;7.16;53.83
69324;DHT22;56470;47.350;8.718;2023-02-11T16:26:00;7.16;53.99
69324;DHT22;56470;47.350;8.718;2023-02-11T16:28:26;7.15;53.98
69324;DHT22;56470;47.350;8.718;2023-02-11T16:30:53;7.14;53.94
69324;DHT22;56470;47.350;8.718;2023-02-11T16:33:19;7.14;54.01
69324;DHT22;56470;47.350;8.718;2023-02-11T16:35:45;7.12;54.03
69324;DHT22;56470;47.350;8.718;2023-02-11T16:38:13;7.12;54.06
69324;DHT22;56470;47.350;8.718;2023-02-11T16:40:38;7.09;53.94
69324;DHT22;56470;47.350;8.718;2023-02-11T16:43:03;7.07;54.07
69324;DHT22;56470;47.350;8.718;2023-02-11T16:45:29;7.07;54.17
69324;DHT22;56470;47.350;8.718;2023-02-11T16:47:54;7.07;54.09
69324;DHT22;56470;47.350;8.718;2023-02-11T16:50:22;7.04;54.15
69324;DHT22;56470;47.350;8.718;2023-02-11T16:52:48;7.04;54.07
69324;DHT22;56470;47.350;8.718;2023-02-11T16:55:13;7.00;54.16
69324;DHT22;56470;47.350;8.718;2023-02-11T16:57:38;6.94;54.13
69324;DHT22;56470;47.350;8.718;2023-02-11T17:00:05;6.88;54.00
69324;DHT22;56470;47.350;8.718;2023-02-11T17:02:36;6.80;54.11
69324;DHT22;56470;47.350;8.718;2023-02-11T17:05:05;6.73;54.27
69324;DHT22;56470;47.350;8.718;2023-02-11T17:07:31;6.66;54.20
69324;DHT22;56470;47.350;8.718;2023-02-11T17:09:57;6.65;54.28
69324;DHT22;56470;47.350;8.718;2023-02-11T17:12:23;6.56;54.22
69324;DHT22;56470;47.350;8.718;2023-02-11T17:14:52;6.52;54.38
69324;DHT22;56470;47.350;8.718;2023-02-11T17:17:17;6.49;54.68
69324;DHT22;56470;47.350;8.718;2023-02-11T17:19:43;6.46;54.98
69324;DHT22;56470;47.350;8.718;2023-02-11T17:22:10;6.41;55.01
69324;DHT22;56470;47.350;8.718;2023-02-11T17:24:36;6.33;55.08
69324;DHT22;56470;47.350;8.718;2023-02-11T17:27:01;6.25;55.27
69324;DHT22;56470;47.350;8.718;2023-02-11T17:29:27;6.21;55.27
69324;DHT22;56470;47.350;8.718;2023-02-11T17:31:52;6.21;55.25
69324;DHT22;56470;47.350;8.718;2023-02-11T17:34:18;6.21;55.60
69324;DHT22;56470;47.350;8.718;2023-02-11T17:36:44;6.17;55.50
69324;DHT22;56470;47.350;8.718;2023-02-11T17:39:10;6.15;55.79
69324;DHT22;56470;47.350;8.718;2023-02-11T17:41:36;6.15;55.78
69324;DHT22;56470;47.350;8.718;2023-02-11T17:44:02;6.15;55.74
69324;DHT22;56470;47.350;8.718;2023-02-11T17:46:28;6.13;56.05
69324;DHT22;56470;47.350;8.718;2023-02-11T17:48:54;6.20;56.22
69324;DHT22;56470;47.350;8.718;2023-02-11T17:51:34;6.22;56.38
69324;DHT22;56470;47.350;8.718;2023-02-11T17:54:04;6.24;56.47
69324;DHT22;56470;47.350;8.718;2023-02-11T17:56:34;6.21;56.52
69324;DHT22;56470;47.350;8.718;2023-02-11T17:59:00;6.21;56.55
69324;DHT22;56470;47.350;8.718;2023-02-11T18:01:30;6.18;56.49